Henderson, Nevada Weather observations

Data are for observation ending at time listed.
 Day   Time    Ave.   Ave.  Ave.  Vector   Max.   Stn.    Total    Solar   Ave.  
  of    of     Air    Rel.  Wind   Wind    Wind   Baro.  Precip.   Rad.    Soil  
Year   Day     Temp.  Hum.  Speed  Dir.    Gust   Pres.                    Temp. 
2016   (PST)    F      %     mph   deg.    mph     mb.     in.     W/m2     F   
------------------------------------------------------------------------------
  44    2:10   50.9    36    0.4   222      1.9   942.7    0.00       0    44.1
  44    2:20   50.9    36    0.6   213      2.2   942.7    0.00       0    43.9
  44    2:30   49.8    38    1.5   199      2.6   942.7    0.00       0    43.7
  44    2:40   48.7    40    1.0   196      3.1   942.6    0.00       0    43.3
  44    2:50   47.4    42    0.7   201      2.1   942.6    0.00       0    42.8
  44    3:00   47.8    41    1.0   194      2.2   942.6    0.00       0    42.4
  44    3:10   47.9    41    0.0     0      0.0   942.6    0.00       0    42.1
  44    3:20   46.6    44    0.6   191      2.5   942.6    0.00       0    41.7
  44    3:30   46.6    44    1.7   187      2.6   942.6    0.00       0    41.3
  44    3:40   47.1    42    2.0   190      2.7   942.6    0.00       0    41.0
  44    3:50   48.3    40    1.8   190      3.8   942.5    0.00       0    41.0
  44    4:00   47.9    40    0.8   196      3.9   942.6    0.00       0    41.0
  44    4:10   47.9    40    2.9   195      4.5   942.6    0.00       0    41.0
  44    4:20   47.0    42    1.8   206      3.2   942.7    0.00       0    41.0
  44    4:30   46.5    43    1.6   203      3.9   942.7    0.00       0    40.8
  44    4:40   45.9    44    1.0   218      3.1   942.7    0.00       0    40.6
  44    4:50   46.3    42    1.1   208      2.6   942.7    0.00       0    40.4
  44    5:00   45.9    44    1.2   202      2.6   942.8    0.00       0    40.1
  44    5:10   46.4    43    1.6   199      3.7   942.8    0.00       0    40.1
  44    5:20   46.4    43    1.4   195      2.9   942.9    0.00       0    40.3
  44    5:30   46.6    42    0.9   187      3.1   942.9    0.00       0    40.4
  44    5:40   45.7    45    0.4   170      1.5   943.1    0.00       0    40.1
  44    5:50   45.4    46    0.7   185      3.7   943.1    0.00       0    39.8
  44    6:00   44.8    47    0.2   198      1.8   943.2    0.00       0    39.6
  44    6:10   43.8    49    0.3   224      1.8   943.3    0.00       0    39.3
  44    6:20   43.8    49    1.1   228      2.8   943.3    0.00       0    39.0
  44    6:30   44.5    47    0.7   222      2.6   943.4    0.00       3    38.8
  44    6:40   44.5    47    0.1   185      1.1   943.5    0.00       7    38.7
  44    6:50   44.3    48    0.2   177      0.7   943.6    0.00      18    38.5
  44    7:00   45.1    48    0.5   184      2.2   943.7    0.00      48    38.6
  44    7:10   47.6    43    2.6   188      4.2   943.8    0.00      79    40.3
  44    7:20   51.3    38    0.7   181      2.6   943.8    0.00     120    43.8
  44    7:30   53.3    34    0.8   185      2.2   943.9    0.00     158    46.9
  44    7:40   54.5    34    1.5   188      2.6   944.0    0.00     192    50.1
  44    7:50   56.1    32    1.5   188      2.3   944.1    0.00     227    53.2
  44    8:00   57.9    30    0.6   201      1.8   944.2    0.00     262    56.0
  44    8:10   58.1    28    0.5   323      1.4   944.2    0.00     298    58.9
  44    8:20   57.5    29    0.9   328      2.1   944.2    0.00     334    61.0
  44    8:30   57.7    28    0.6   105      1.7   944.2    0.00     367    62.5
  44    8:40   59.2    27    0.8    97      2.0   944.3    0.00     401    62.9
  44    8:50   59.3    27    1.6   109      2.5   944.4    0.00     434    62.9
  44    9:00   59.5    27    1.7    89      3.0   944.4    0.00     467    64.0
  44    9:10   61.4    25    0.7    70      1.9   944.4    0.00     499    65.9
  44    9:20   62.1    24    1.0    82      2.6   944.3    0.00     529    67.6
  44    9:30   62.0    24    1.4   334      3.4   944.3    0.00     559    69.3
  44    9:40   62.1    24    1.4   327      3.7   944.3    0.00     584    70.7
  44    9:50   62.1    23    3.0   330      6.0   944.3    0.00     610    71.7
  44   10:00   61.9    23    3.5   317      7.0   944.3    0.00     634    71.8
  44   10:10   62.2    23    3.7   317      6.9   944.2    0.00     661    72.1
  44   10:20   62.4    23    3.4   330      6.4   944.2    0.00     682    72.5
  44   10:30   63.0    23    2.5   319      4.7   944.1    0.00     704    73.3
  44   10:40   63.5    23    2.6   321      5.7   944.1    0.00     743    74.2
  44   10:50   64.1    23    2.7   323      5.7   944.2    0.00     752    75.0
  44   11:00   64.1    22    3.0   315      5.8   944.2    0.00     769    75.4
  44   11:10   65.3    22    2.2     1      6.3   944.0    0.00     778    75.9
  44   11:20   66.1    21    2.4   299      5.6   944.0    0.00     826    76.6
  44   11:30   65.5    21    2.6   314      5.6   943.7    0.00     494    76.1
  44   11:40   65.2    20    2.4   325      4.7   943.5    0.00     437    73.4
  44   11:50   66.1    20    2.2   338      5.3   943.4    0.00     615    72.7
  44   12:00   66.2    20    2.6   295      5.6   943.2    0.00     764    72.9
  44   12:10   68.1    18    1.0    52      3.7   943.1    0.00     788    74.7
  44   12:20   68.5    18    2.4   334      5.3   942.8    0.00     787    76.0
  44   12:30   68.1    18    2.2   312      5.3   942.6    0.00     770    76.4
  44   12:40   68.6    18    2.5   339      5.7   942.3    0.00     778    76.2
  44   12:50   69.3    18    2.2   317      4.5   942.1    0.00     804    76.5
  44   13:00   69.8    18    1.7   299      4.1   942.0    0.00     795    76.9
  44   13:10   69.9    18    1.2   350      4.2   941.8    0.00     510    76.4
  44   13:20   70.7    17    2.1    42      5.1   941.6    0.00     776    75.5
  44   13:30   71.3    17    2.7   347      5.4   941.5    0.00     730    75.9
  44   13:40   71.1    17    1.6   327      4.6   941.2    0.00     707    75.7
  44   13:50   71.8    17    2.6   324      5.4   941.2    0.00     680    75.3
  44   14:00   71.6    16    2.5   336      6.1   941.1    0.00     654    74.7
  44   14:10   71.5    16    1.4   356      3.4   941.1    0.00     625    73.9
  44   14:20   72.1    15    2.2   309      4.0   941.1    0.00     515    73.2
  44   14:30   72.0    15    2.7   312      5.6   941.0    0.00     569    72.4
  44   14:40   72.4    14    3.0   323      5.7   941.0    0.00     555    71.9
  44   14:50   72.4    14    2.7   317      5.3   941.1    0.00     566    71.5
  44   15:00   72.9    14    2.2   323      5.5   941.2    0.00     501    71.1
  44   15:10   73.4    14    2.0   336      4.8   941.3    0.00     455    70.6
  44   15:20   73.0    14    1.6   332      5.3   941.3    0.00     426    70.0
  44   15:30   73.5    14    1.1   327      2.4   941.3    0.00     360    69.4
  44   15:40   73.2    14    1.3   244      3.9   941.2    0.00     336    69.0
  44   15:50   72.7    14    0.9   313      3.1   941.3    0.00     317    68.5
  44   16:00   72.5    14    0.6    40      2.0   941.4    0.00     279    68.0
  44   16:10   72.4    14    1.0   356      2.6   941.3    0.00     242    67.3
  44   16:20   72.2    13    0.1   279      1.8   941.3    0.00     203    66.7
  44   16:30   71.8    14    1.7   284      3.7   941.3    0.00     166    66.1
  44   16:40   71.6    14    0.1   274      1.4   941.3    0.00     131    65.7
  44   16:50   71.1    15    1.0   295      2.0   941.3    0.00      89    65.1
  44   17:00   70.8    16    1.1   311      3.1   941.3    0.00      39    64.7
  44   17:10   69.6    17    1.8   282      2.6   941.3    0.00      15    64.2
  44   17:20   68.5    17    2.2   275      3.3   941.4    0.00       7    63.3
  44   17:30   67.9    18    1.4   272      2.8   941.3    0.00       7    62.7
  44   17:40   66.1    19    0.6   101      1.5   941.3    0.00       1    61.6
  44   17:50   65.6    20    1.2   105      2.6   941.2    0.00       0    60.7
  44   18:00   65.5    20    1.5   145      2.5   941.2    0.00       0    59.9
  44   18:10   65.9    20    1.3   159      2.4   941.1    0.00       0    59.3
  44   18:20   64.8    21    0.4   180      2.2   941.1    0.00       0    58.6
  44   18:30   63.7    22    1.2   195      2.7   941.2    0.00       0    57.8
  44   18:40   62.4    24    0.6   136      1.9   941.2    0.00       0    57.2
  44   18:50   61.4    25    0.6   187      2.3   941.1    0.00       0    56.5
  44   19:00   60.9    25    0.5   180      2.6   941.2    0.00       0    55.7
  44   19:10   60.5    26    0.6   183      1.7   941.1    0.00       0    55.1
  44   19:20   59.6    27    0.2   180      1.8   941.1    0.00       0    54.4
  44   19:30   58.7    28    0.7   156      3.0   941.0    0.00       0    53.7
  44   19:40   61.1    24    1.8   163      3.4   940.9    0.00       0    53.3
  44   19:50   61.0    25    0.8   195      2.3   940.9    0.00       0    53.2
  44   20:00   60.2    25    1.8   188      3.3   940.8    0.00       0    53.0
  44   20:10   59.5    26    0.4   212      3.0   940.8    0.00       0    52.9
  44   20:20   58.6    27    1.8   115      3.9   940.9    0.00       0    52.6
  44   20:30   58.6    27    1.3   124      3.8   941.0    0.00       0    52.7
  44   20:40   59.3    26    1.0   184      2.9   941.0    0.00       0    52.6
  44   20:50   57.8    27    1.4   197      3.0   941.1    0.00       0    52.2
  44   21:00   57.6    27    1.7   223      3.6   941.2    0.00       0    51.8
  44   21:10   57.9    26    1.9   260      5.1   941.4    0.00       0    51.5
  44   21:20   57.7    27    0.9   296      1.9   941.6    0.00       0    51.5
  44   21:30   57.1    28    1.3   271      2.1   941.7    0.00       0    51.1
  44   21:40   57.1    28    1.1   254      2.4   941.8    0.00       0    50.7
  44   21:50   56.8    29    0.3   211      1.2   941.9    0.00       0    50.4
  44   22:00   56.0    30    1.5   223      3.6   941.9    0.00       0    50.0
  44   22:10   55.1    32    1.3   252      2.6   942.1    0.00       0    49.5
  44   22:20   55.0    32    1.1   106      2.1   942.1    0.00       0    49.1
  44   22:30   56.0    30    0.5   311      3.1   942.0    0.00       0    49.1
  44   22:40   55.2    32    0.3   282      2.2   942.1    0.00       0    48.8
  44   22:50   56.4    29    2.2   261      6.5   942.0    0.00       0    48.7
  44   23:00   55.4    31    1.3   107      3.6   942.1    0.00       0    49.1
  44   23:10   54.0    32    1.7   203      3.4   942.0    0.00       0    48.8
  44   23:20   52.9    34    1.1   244      2.4   942.2    0.00       0    48.2
  44   23:30   53.3    31    2.6   291      6.4   942.3    0.00       0    47.8
  44   23:40   58.2    25    3.9   287      7.1   942.3    0.00       0    48.8
  44   23:50   58.9    25    2.9   291      4.6   942.2    0.00       0    50.5
  45    0:00   59.3    23    2.2   281      4.2   942.3    0.00       0    51.4
  45    0:10   56.4    27    2.1   106      3.7   942.3    0.00       0    51.4
  45    0:20   55.3    28    1.7   112      3.4   942.2    0.00       0    50.9
  45    0:30   54.4    30    0.5   103      1.8   942.4    0.00       0    50.3
  45    0:40   52.5    32    0.7   239      3.0   942.6    0.00       0    49.1
  45    0:50   51.5    33    1.3   194      3.1   942.8    0.00       0    48.2
  45    1:00   51.8    33    1.4   199      3.5   942.7    0.00       0    47.5
  45    1:10   51.3    33    1.1   188      3.1   942.7    0.00       0    46.9
  45    1:20   52.5    29    1.0   232      3.4   942.6    0.00       0    46.4
  45    1:30   52.2    31    2.6   104      3.9   942.7    0.00       0    46.3
  45    1:40   52.1    30    0.4   115      2.3   942.8    0.00       0    46.3
  45    1:50   53.6    26    2.1   278      3.8   942.7    0.00       0    46.0
  45    2:00   54.4    25    1.0    95      2.5   942.7    0.00       0    46.2

Return to Henderson, Nevada graphs page.


Western Regional Climate Center,wrcc@dri.edu